Quick Links (Output Below):   Max & Min Temps   /   Climate Reports   /   Zone Forecasts
River Forecasts   /   Forestry Forecasts   /   Aviation Forecasts   /   Radars   /   Features

Terminal Aerodrome Forecast (El Dorado)

Pick a Site:
Arkadelphia | El Dorado | Fayetteville | Fort Smith | Harrison | Highfill | Hot Springs | Jonesboro
Little Rock | Monticello | Mountain Home | Pine Bluff | Texarkana
 Forecast 

KELD 260329Z 2603/2624 00000KT 5SM BR SKC
      TEMPO 2603/2606 2SM BR
     FM260600 00000KT 3SM BR SKC
      TEMPO 2608/2610 1SM BR
     FM261400 23005KT P6SM SKC
     FM261800 21007KT P6SM SKC=


 Latest METARs (Observations) 
How to Decode METARs
03Z KELD 260253Z AUTO 00000KT 7SM CLR 17/17 A3007 RMK AO2 SLP180
         T01720167 50002
         
02Z KELD 260153Z AUTO 00000KT 4SM BR CLR 17/17 A3007 RMK AO2 SLP180
         T01720172
         
01Z KELD 260053Z AUTO 00000KT 6SM BR CLR 19/18 A3007 RMK AO2 SLP180
         T01890183
         
00Z KELD 252353Z AUTO 00000KT 10SM CLR 21/18 A3006 RMK AO2 SLP178
         T02060183 10283 20200 56002
         
***** Today's Observations (Above) *****


23Z KELD 252253Z AUTO 23003KT 10SM CLR 26/18 A3006 RMK AO2 SLP178
         T02560183
         
22Z KELD 252153Z AUTO 24004KT 10SM CLR 28/17 A3007 RMK AO2 SLP178
         T02780172
         
21Z KELD 252053Z AUTO 26006KT 10SM CLR 28/17 A3007 RMK AO2 SLP179
         T02780172 56022
         
20Z KELD 251953Z AUTO VRB05KT 10SM CLR 28/17 A3008 RMK AO2 SLP183
         T02780167
         
19Z KELD 251853Z AUTO 23007KT 10SM CLR 27/16 A3010 RMK AO2 SLP191
         T02720161
         
18Z KELD 251753Z AUTO 22007KT 10SM CLR 27/16 A3013 RMK AO2 SLP201
         T02670161 10267 20094 58015
         
***** Yesterday's Observations (Above) *****


Back to Main Page
http://www.srh.noaa.gov/lzk/qfcst.php

USA.gov is the U.S. government's official web portal to all federal, state and local government web resources and services.